sensor_id;sensor_type;location;lat;lon;timestamp;P1;durP1;ratioP1;P2;durP2;ratioP2
60169;SDS011;46042;49.444;6.862;2023-08-21T00:01:37;5.60;;;3.20;;
60169;SDS011;46042;49.444;6.862;2023-08-21T00:04:04;11.18;;;3.88;;
60169;SDS011;46042;49.444;6.862;2023-08-21T00:06:31;9.85;;;3.67;;
60169;SDS011;46042;49.444;6.862;2023-08-21T00:08:58;5.20;;;3.42;;
60169;SDS011;46042;49.444;6.862;2023-08-21T00:11:26;8.45;;;3.08;;
60169;SDS011;46042;49.444;6.862;2023-08-21T00:13:53;8.15;;;3.75;;
60169;SDS011;46042;49.444;6.862;2023-08-21T00:16:20;9.95;;;3.42;;
60169;SDS011;46042;49.444;6.862;2023-08-21T00:18:46;6.45;;;3.42;;
60169;SDS011;46042;49.444;6.862;2023-08-21T00:21:13;9.95;;;3.55;;
60169;SDS011;46042;49.444;6.862;2023-08-21T00:23:40;8.02;;;3.53;;
60169;SDS011;46042;49.444;6.862;2023-08-21T00:26:06;6.28;;;3.55;;
60169;SDS011;46042;49.444;6.862;2023-08-21T00:28:33;13.05;;;3.53;;
60169;SDS011;46042;49.444;6.862;2023-08-21T00:31:01;6.85;;;3.10;;
60169;SDS011;46042;49.444;6.862;2023-08-21T00:33:32;8.25;;;3.90;;
60169;SDS011;46042;49.444;6.862;2023-08-21T00:35:59;6.82;;;3.17;;
60169;SDS011;46042;49.444;6.862;2023-08-21T00:38:26;6.97;;;3.17;;
60169;SDS011;46042;49.444;6.862;2023-08-21T00:40:53;7.88;;;3.28;;
60169;SDS011;46042;49.444;6.862;2023-08-21T00:43:20;14.93;;;4.40;;
60169;SDS011;46042;49.444;6.862;2023-08-21T00:45:47;7.47;;;3.20;;
60169;SDS011;46042;49.444;6.862;2023-08-21T00:48:16;10.15;;;3.28;;
60169;SDS011;46042;49.444;6.862;2023-08-21T00:50:44;9.05;;;4.13;;
60169;SDS011;46042;49.444;6.862;2023-08-21T00:53:11;10.30;;;4.50;;
60169;SDS011;46042;49.444;6.862;2023-08-21T00:55:39;19.20;;;4.00;;
60169;SDS011;46042;49.444;6.862;2023-08-21T00:58:06;14.02;;;4.30;;
60169;SDS011;46042;49.444;6.862;2023-08-21T01:00:37;11.52;;;3.65;;
60169;SDS011;46042;49.444;6.862;2023-08-21T01:03:04;12.25;;;3.55;;
60169;SDS011;46042;49.444;6.862;2023-08-21T01:05:31;17.52;;;3.35;;
60169;SDS011;46042;49.444;6.862;2023-08-21T01:08:02;8.75;;;4.10;;
60169;SDS011;46042;49.444;6.862;2023-08-21T01:10:36;6.55;;;3.58;;
60169;SDS011;46042;49.444;6.862;2023-08-21T01:13:11;9.20;;;3.38;;
60169;SDS011;46042;49.444;6.862;2023-08-21T01:15:46;16.27;;;4.18;;
60169;SDS011;46042;49.444;6.862;2023-08-21T01:18:16;9.00;;;3.72;;
60169;SDS011;46042;49.444;6.862;2023-08-21T01:20:44;10.30;;;3.75;;
60169;SDS011;46042;49.444;6.862;2023-08-21T01:23:26;9.23;;;4.13;;
60169;SDS011;46042;49.444;6.862;2023-08-21T01:25:55;11.02;;;4.70;;
60169;SDS011;46042;49.444;6.862;2023-08-21T01:28:22;5.18;;;3.90;;
60169;SDS011;46042;49.444;6.862;2023-08-21T01:30:49;11.60;;;4.13;;
60169;SDS011;46042;49.444;6.862;2023-08-21T01:33:20;6.03;;;3.88;;
60169;SDS011;46042;49.444;6.862;2023-08-21T01:35:49;8.02;;;3.50;;
60169;SDS011;46042;49.444;6.862;2023-08-21T01:38:16;6.03;;;3.70;;
60169;SDS011;46042;49.444;6.862;2023-08-21T01:40:44;9.73;;;3.88;;
60169;SDS011;46042;49.444;6.862;2023-08-21T01:43:13;8.95;;;3.22;;
60169;SDS011;46042;49.444;6.862;2023-08-21T01:45:39;8.52;;;3.17;;
60169;SDS011;46042;49.444;6.862;2023-08-21T01:48:06;8.10;;;3.55;;
60169;SDS011;46042;49.444;6.862;2023-08-21T01:50:33;10.02;;;3.38;;
60169;SDS011;46042;49.444;6.862;2023-08-21T01:53:00;7.60;;;3.30;;
60169;SDS011;46042;49.444;6.862;2023-08-21T01:55:26;9.88;;;3.63;;
60169;SDS011;46042;49.444;6.862;2023-08-21T01:57:53;15.07;;;3.63;;
60169;SDS011;46042;49.444;6.862;2023-08-21T02:00:20;12.05;;;3.90;;
60169;SDS011;46042;49.444;6.862;2023-08-21T02:02:46;6.90;;;3.60;;
60169;SDS011;46042;49.444;6.862;2023-08-21T02:05:13;7.35;;;4.82;;
60169;SDS011;46042;49.444;6.862;2023-08-21T02:07:40;11.27;;;3.17;;
60169;SDS011;46042;49.444;6.862;2023-08-21T02:10:07;15.65;;;3.50;;
60169;SDS011;46042;49.444;6.862;2023-08-21T02:12:34;6.50;;;3.38;;
60169;SDS011;46042;49.444;6.862;2023-08-21T02:15:05;7.60;;;3.80;;
60169;SDS011;46042;49.444;6.862;2023-08-21T02:17:32;11.48;;;3.97;;
60169;SDS011;46042;49.444;6.862;2023-08-21T02:19:59;9.63;;;3.65;;
60169;SDS011;46042;49.444;6.862;2023-08-21T02:22:25;9.88;;;4.00;;
60169;SDS011;46042;49.444;6.862;2023-08-21T02:24:52;10.63;;;4.03;;
60169;SDS011;46042;49.444;6.862;2023-08-21T02:27:19;7.70;;;3.83;;
60169;SDS011;46042;49.444;6.862;2023-08-21T02:29:45;11.13;;;4.32;;
60169;SDS011;46042;49.444;6.862;2023-08-21T02:32:12;8.75;;;4.25;;
60169;SDS011;46042;49.444;6.862;2023-08-21T02:34:39;9.35;;;4.13;;
60169;SDS011;46042;49.444;6.862;2023-08-21T02:37:06;8.02;;;4.32;;
60169;SDS011;46042;49.444;6.862;2023-08-21T02:39:33;6.53;;;3.85;;
60169;SDS011;46042;49.444;6.862;2023-08-21T02:41:59;6.90;;;3.85;;
60169;SDS011;46042;49.444;6.862;2023-08-21T02:44:26;8.10;;;4.20;;
60169;SDS011;46042;49.444;6.862;2023-08-21T02:46:53;8.27;;;3.78;;
60169;SDS011;46042;49.444;6.862;2023-08-21T02:49:19;13.65;;;3.97;;
60169;SDS011;46042;49.444;6.862;2023-08-21T02:51:46;8.95;;;3.72;;
60169;SDS011;46042;49.444;6.862;2023-08-21T02:54:13;10.10;;;4.30;;
60169;SDS011;46042;49.444;6.862;2023-08-21T02:56:39;7.28;;;3.67;;
60169;SDS011;46042;49.444;6.862;2023-08-21T02:59:06;5.88;;;3.38;;
60169;SDS011;46042;49.444;6.862;2023-08-21T03:01:33;7.95;;;3.47;;
60169;SDS011;46042;49.444;6.862;2023-08-21T03:04:01;9.95;;;3.28;;
60169;SDS011;46042;49.444;6.862;2023-08-21T03:06:28;5.25;;;3.30;;
60169;SDS011;46042;49.444;6.862;2023-08-21T03:08:55;8.05;;;3.95;;
60169;SDS011;46042;49.444;6.862;2023-08-21T03:11:21;15.07;;;5.18;;
60169;SDS011;46042;49.444;6.862;2023-08-21T03:13:48;14.60;;;4.47;;
60169;SDS011;46042;49.444;6.862;2023-08-21T03:16:14;11.85;;;4.43;;
60169;SDS011;46042;49.444;6.862;2023-08-21T03:18:55;16.17;;;4.88;;
60169;SDS011;46042;49.444;6.862;2023-08-21T03:21:25;19.27;;;5.28;;
60169;SDS011;46042;49.444;6.862;2023-08-21T03:23:56;14.07;;;5.43;;
60169;SDS011;46042;49.444;6.862;2023-08-21T03:26:29;15.57;;;4.78;;
60169;SDS011;46042;49.444;6.862;2023-08-21T03:28:56;17.08;;;5.07;;
60169;SDS011;46042;49.444;6.862;2023-08-21T03:31:22;13.00;;;4.65;;
60169;SDS011;46042;49.444;6.862;2023-08-21T03:33:49;13.95;;;4.78;;
60169;SDS011;46042;49.444;6.862;2023-08-21T03:36:16;16.92;;;5.03;;
60169;SDS011;46042;49.444;6.862;2023-08-21T03:38:42;9.85;;;6.10;;
60169;SDS011;46042;49.444;6.862;2023-08-21T03:41:09;12.20;;;5.50;;
60169;SDS011;46042;49.444;6.862;2023-08-21T03:43:36;10.23;;;5.35;;
60169;SDS011;46042;49.444;6.862;2023-08-21T03:46:03;15.55;;;5.30;;
60169;SDS011;46042;49.444;6.862;2023-08-21T03:48:30;12.35;;;5.55;;
60169;SDS011;46042;49.444;6.862;2023-08-21T03:50:56;21.58;;;5.30;;
60169;SDS011;46042;49.444;6.862;2023-08-21T03:53:23;9.57;;;5.30;;
60169;SDS011;46042;49.444;6.862;2023-08-21T03:55:49;10.40;;;4.88;;
60169;SDS011;46042;49.444;6.862;2023-08-21T03:58:16;10.85;;;4.47;;
60169;SDS011;46042;49.444;6.862;2023-08-21T04:00:43;15.70;;;5.10;;
60169;SDS011;46042;49.444;6.862;2023-08-21T04:03:09;14.15;;;4.80;;
60169;SDS011;46042;49.444;6.862;2023-08-21T04:05:36;9.52;;;4.95;;
60169;SDS011;46042;49.444;6.862;2023-08-21T04:08:03;13.05;;;5.68;;
60169;SDS011;46042;49.444;6.862;2023-08-21T04:10:30;9.15;;;4.90;;
60169;SDS011;46042;49.444;6.862;2023-08-21T04:12:57;10.38;;;5.30;;
60169;SDS011;46042;49.444;6.862;2023-08-21T04:15:23;19.73;;;5.70;;
60169;SDS011;46042;49.444;6.862;2023-08-21T04:17:50;18.85;;;5.85;;
60169;SDS011;46042;49.444;6.862;2023-08-21T04:20:17;14.07;;;6.05;;
60169;SDS011;46042;49.444;6.862;2023-08-21T04:22:46;12.10;;;5.78;;
60169;SDS011;46042;49.444;6.862;2023-08-21T04:25:12;13.20;;;5.60;;
60169;SDS011;46042;49.444;6.862;2023-08-21T04:27:39;11.57;;;5.70;;
60169;SDS011;46042;49.444;6.862;2023-08-21T04:30:06;11.95;;;4.93;;
60169;SDS011;46042;49.444;6.862;2023-08-21T04:32:34;9.05;;;4.78;;
60169;SDS011;46042;49.444;6.862;2023-08-21T04:35:01;13.57;;;4.80;;
60169;SDS011;46042;49.444;6.862;2023-08-21T04:37:27;10.68;;;4.28;;
60169;SDS011;46042;49.444;6.862;2023-08-21T04:39:54;14.95;;;5.10;;
60169;SDS011;46042;49.444;6.862;2023-08-21T04:42:22;7.45;;;5.07;;
60169;SDS011;46042;49.444;6.862;2023-08-21T04:44:49;8.38;;;4.40;;
60169;SDS011;46042;49.444;6.862;2023-08-21T04:47:22;13.68;;;4.85;;
60169;SDS011;46042;49.444;6.862;2023-08-21T04:49:52;9.32;;;5.35;;
60169;SDS011;46042;49.444;6.862;2023-08-21T04:52:20;12.25;;;5.47;;
60169;SDS011;46042;49.444;6.862;2023-08-21T04:54:48;15.90;;;5.70;;
60169;SDS011;46042;49.444;6.862;2023-08-21T04:57:15;10.93;;;5.38;;
60169;SDS011;46042;49.444;6.862;2023-08-21T04:59:43;20.52;;;7.78;;
60169;SDS011;46042;49.444;6.862;2023-08-21T05:02:10;25.30;;;10.40;;
60169;SDS011;46042;49.444;6.862;2023-08-21T05:04:37;30.17;;;12.30;;
60169;SDS011;46042;49.444;6.862;2023-08-21T05:07:04;24.73;;;9.95;;
60169;SDS011;46042;49.444;6.862;2023-08-21T05:09:34;15.75;;;9.32;;
60169;SDS011;46042;49.444;6.862;2023-08-21T05:12:01;15.73;;;9.13;;
60169;SDS011;46042;49.444;6.862;2023-08-21T05:14:27;21.13;;;9.77;;
60169;SDS011;46042;49.444;6.862;2023-08-21T05:16:54;21.40;;;10.85;;
60169;SDS011;46042;49.444;6.862;2023-08-21T05:19:21;21.02;;;10.57;;
60169;SDS011;46042;49.444;6.862;2023-08-21T05:21:47;18.30;;;9.25;;
60169;SDS011;46042;49.444;6.862;2023-08-21T05:24:14;24.65;;;9.00;;
60169;SDS011;46042;49.444;6.862;2023-08-21T05:26:40;16.50;;;8.05;;
60169;SDS011;46042;49.444;6.862;2023-08-21T05:29:07;25.75;;;8.07;;
60169;SDS011;46042;49.444;6.862;2023-08-21T05:31:34;20.08;;;8.43;;
60169;SDS011;46042;49.444;6.862;2023-08-21T05:34:01;17.20;;;9.02;;
60169;SDS011;46042;49.444;6.862;2023-08-21T05:36:28;16.40;;;9.95;;
60169;SDS011;46042;49.444;6.862;2023-08-21T05:38:56;16.10;;;8.48;;
60169;SDS011;46042;49.444;6.862;2023-08-21T05:41:23;20.10;;;8.05;;
60169;SDS011;46042;49.444;6.862;2023-08-21T05:43:50;23.08;;;8.98;;
60169;SDS011;46042;49.444;6.862;2023-08-21T05:46:17;12.38;;;7.45;;
60169;SDS011;46042;49.444;6.862;2023-08-21T05:48:44;15.07;;;6.97;;
60169;SDS011;46042;49.444;6.862;2023-08-21T05:51:10;18.55;;;7.85;;
60169;SDS011;46042;49.444;6.862;2023-08-21T05:53:38;25.55;;;9.70;;
60169;SDS011;46042;49.444;6.862;2023-08-21T05:56:04;16.48;;;7.57;;
60169;SDS011;46042;49.444;6.862;2023-08-21T05:58:31;13.15;;;6.65;;
60169;SDS011;46042;49.444;6.862;2023-08-21T06:00:59;18.92;;;7.75;;
60169;SDS011;46042;49.444;6.862;2023-08-21T06:03:26;22.42;;;8.57;;
60169;SDS011;46042;49.444;6.862;2023-08-21T06:05:52;11.93;;;6.82;;
60169;SDS011;46042;49.444;6.862;2023-08-21T06:08:19;19.52;;;8.00;;
60169;SDS011;46042;49.444;6.862;2023-08-21T06:10:50;15.20;;;8.55;;
60169;SDS011;46042;49.444;6.862;2023-08-21T06:13:18;18.60;;;8.13;;
60169;SDS011;46042;49.444;6.862;2023-08-21T06:15:46;14.30;;;7.70;;
60169;SDS011;46042;49.444;6.862;2023-08-21T06:18:14;15.73;;;8.05;;
60169;SDS011;46042;49.444;6.862;2023-08-21T06:20:42;19.92;;;10.27;;
60169;SDS011;46042;49.444;6.862;2023-08-21T06:23:10;21.60;;;8.18;;
60169;SDS011;46042;49.444;6.862;2023-08-21T06:25:38;26.63;;;8.27;;
60169;SDS011;46042;49.444;6.862;2023-08-21T06:28:06;23.65;;;7.88;;
60169;SDS011;46042;49.444;6.862;2023-08-21T06:30:33;20.95;;;8.75;;
60169;SDS011;46042;49.444;6.862;2023-08-21T06:33:00;25.90;;;7.10;;
60169;SDS011;46042;49.444;6.862;2023-08-21T06:35:26;24.40;;;7.47;;
60169;SDS011;46042;49.444;6.862;2023-08-21T06:37:53;15.75;;;6.68;;
60169;SDS011;46042;49.444;6.862;2023-08-21T06:40:21;19.50;;;6.10;;
60169;SDS011;46042;49.444;6.862;2023-08-21T06:42:47;19.30;;;7.40;;
60169;SDS011;46042;49.444;6.862;2023-08-21T06:45:17;23.10;;;6.82;;
60169;SDS011;46042;49.444;6.862;2023-08-21T06:47:44;22.38;;;6.50;;
60169;SDS011;46042;49.444;6.862;2023-08-21T06:50:12;20.52;;;6.63;;
60169;SDS011;46042;49.444;6.862;2023-08-21T06:52:39;12.07;;;6.55;;
60169;SDS011;46042;49.444;6.862;2023-08-21T06:55:06;17.60;;;6.53;;
60169;SDS011;46042;49.444;6.862;2023-08-21T06:57:33;14.57;;;6.53;;
60169;SDS011;46042;49.444;6.862;2023-08-21T07:00:00;20.85;;;6.13;;
60169;SDS011;46042;49.444;6.862;2023-08-21T07:02:28;25.70;;;7.55;;
60169;SDS011;46042;49.444;6.862;2023-08-21T07:04:55;16.85;;;6.38;;
60169;SDS011;46042;49.444;6.862;2023-08-21T07:07:22;24.55;;;7.18;;
60169;SDS011;46042;49.444;6.862;2023-08-21T07:09:50;25.65;;;7.65;;
60169;SDS011;46042;49.444;6.862;2023-08-21T07:12:17;17.73;;;6.78;;
60169;SDS011;46042;49.444;6.862;2023-08-21T07:14:44;13.73;;;7.10;;
60169;SDS011;46042;49.444;6.862;2023-08-21T07:17:10;17.73;;;6.13;;
60169;SDS011;46042;49.444;6.862;2023-08-21T07:19:38;17.95;;;6.03;;
60169;SDS011;46042;49.444;6.862;2023-08-21T07:22:05;13.98;;;6.50;;
60169;SDS011;46042;49.444;6.862;2023-08-21T07:24:32;13.98;;;5.97;;
60169;SDS011;46042;49.444;6.862;2023-08-21T07:26:58;13.32;;;6.13;;
60169;SDS011;46042;49.444;6.862;2023-08-21T07:29:25;16.73;;;5.90;;
60169;SDS011;46042;49.444;6.862;2023-08-21T07:31:52;8.43;;;5.70;;
60169;SDS011;46042;49.444;6.862;2023-08-21T07:34:19;11.45;;;5.82;;
60169;SDS011;46042;49.444;6.862;2023-08-21T07:36:48;14.00;;;6.15;;
60169;SDS011;46042;49.444;6.862;2023-08-21T07:39:14;13.68;;;6.40;;
60169;SDS011;46042;49.444;6.862;2023-08-21T07:41:41;13.95;;;6.75;;
60169;SDS011;46042;49.444;6.862;2023-08-21T07:44:08;11.90;;;5.75;;
60169;SDS011;46042;49.444;6.862;2023-08-21T07:46:34;12.57;;;6.03;;
60169;SDS011;46042;49.444;6.862;2023-08-21T07:49:02;11.05;;;6.97;;
60169;SDS011;46042;49.444;6.862;2023-08-21T07:51:29;10.27;;;5.70;;
60169;SDS011;46042;49.444;6.862;2023-08-21T07:53:55;12.15;;;5.22;;
60169;SDS011;46042;49.444;6.862;2023-08-21T07:56:26;12.07;;;5.80;;
60169;SDS011;46042;49.444;6.862;2023-08-21T07:58:52;10.65;;;5.68;;
60169;SDS011;46042;49.444;6.862;2023-08-21T08:01:20;8.52;;;5.75;;
60169;SDS011;46042;49.444;6.862;2023-08-21T08:03:47;9.02;;;5.30;;
60169;SDS011;46042;49.444;6.862;2023-08-21T08:06:16;8.93;;;5.60;;
60169;SDS011;46042;49.444;6.862;2023-08-21T08:08:43;10.43;;;5.28;;
60169;SDS011;46042;49.444;6.862;2023-08-21T08:11:09;10.43;;;5.90;;
60169;SDS011;46042;49.444;6.862;2023-08-21T08:13:36;11.43;;;6.10;;
60169;SDS011;46042;49.444;6.862;2023-08-21T08:16:04;12.82;;;6.20;;
60169;SDS011;46042;49.444;6.862;2023-08-21T08:18:33;9.30;;;5.80;;
60169;SDS011;46042;49.444;6.862;2023-08-21T08:21:00;9.07;;;5.53;;
60169;SDS011;46042;49.444;6.862;2023-08-21T08:23:27;10.30;;;5.53;;
60169;SDS011;46042;49.444;6.862;2023-08-21T08:25:53;8.55;;;5.53;;
60169;SDS011;46042;49.444;6.862;2023-08-21T08:28:20;11.05;;;5.40;;
60169;SDS011;46042;49.444;6.862;2023-08-21T08:30:47;9.75;;;5.47;;
60169;SDS011;46042;49.444;6.862;2023-08-21T08:33:13;8.40;;;5.53;;
60169;SDS011;46042;49.444;6.862;2023-08-21T08:35:40;7.85;;;5.75;;
60169;SDS011;46042;49.444;6.862;2023-08-21T08:38:07;11.50;;;4.95;;
60169;SDS011;46042;49.444;6.862;2023-08-21T08:40:34;8.07;;;4.88;;
60169;SDS011;46042;49.444;6.862;2023-08-21T08:43:10;12.07;;;5.70;;
60169;SDS011;46042;49.444;6.862;2023-08-21T08:45:38;7.55;;;5.50;;
60169;SDS011;46042;49.444;6.862;2023-08-21T08:48:06;13.85;;;5.57;;
60169;SDS011;46042;49.444;6.862;2023-08-21T08:50:34;8.07;;;5.78;;
60169;SDS011;46042;49.444;6.862;2023-08-21T08:53:01;7.22;;;5.10;;
60169;SDS011;46042;49.444;6.862;2023-08-21T08:55:42;6.40;;;5.32;;
60169;SDS011;46042;49.444;6.862;2023-08-21T08:58:09;8.48;;;3.97;;
60169;SDS011;46042;49.444;6.862;2023-08-21T09:00:36;6.50;;;4.57;;
60169;SDS011;46042;49.444;6.862;2023-08-21T09:03:03;5.30;;;3.28;;
60169;SDS011;46042;49.444;6.862;2023-08-21T09:05:30;5.97;;;3.72;;
60169;SDS011;46042;49.444;6.862;2023-08-21T09:08:02;6.85;;;3.78;;
60169;SDS011;46042;49.444;6.862;2023-08-21T09:10:39;5.72;;;3.88;;
60169;SDS011;46042;49.444;6.862;2023-08-21T09:13:25;7.53;;;3.65;;
60169;SDS011;46042;49.444;6.862;2023-08-21T09:15:55;7.53;;;3.72;;
60169;SDS011;46042;49.444;6.862;2023-08-21T09:18:22;6.93;;;3.78;;
60169;SDS011;46042;49.444;6.862;2023-08-21T09:20:49;6.13;;;4.30;;
60169;SDS011;46042;49.444;6.862;2023-08-21T09:23:16;5.53;;;3.92;;
60169;SDS011;46042;49.444;6.862;2023-08-21T09:25:44;7.10;;;4.13;;
60169;SDS011;46042;49.444;6.862;2023-08-21T09:28:20;4.32;;;3.42;;
60169;SDS011;46042;49.444;6.862;2023-08-21T09:30:48;7.20;;;4.00;;
60169;SDS011;46042;49.444;6.862;2023-08-21T09:33:23;5.82;;;3.88;;
60169;SDS011;46042;49.444;6.862;2023-08-21T09:35:54;6.18;;;3.83;;
60169;SDS011;46042;49.444;6.862;2023-08-21T09:38:21;4.63;;;3.60;;
60169;SDS011;46042;49.444;6.862;2023-08-21T09:40:55;6.18;;;3.58;;
60169;SDS011;46042;49.444;6.862;2023-08-21T09:43:24;4.78;;;3.70;;
60169;SDS011;46042;49.444;6.862;2023-08-21T09:45:51;7.15;;;4.15;;
60169;SDS011;46042;49.444;6.862;2023-08-21T09:48:21;5.47;;;3.25;;
60169;SDS011;46042;49.444;6.862;2023-08-21T09:50:53;5.65;;;3.97;;
60169;SDS011;46042;49.444;6.862;2023-08-21T09:53:21;6.32;;;2.97;;
60169;SDS011;46042;49.444;6.862;2023-08-21T09:55:51;7.72;;;3.40;;
60169;SDS011;46042;49.444;6.862;2023-08-21T09:58:19;5.82;;;3.17;;
60169;SDS011;46042;49.444;6.862;2023-08-21T10:00:48;6.13;;;3.17;;
60169;SDS011;46042;49.444;6.862;2023-08-21T10:03:20;4.50;;;2.95;;
60169;SDS011;46042;49.444;6.862;2023-08-21T10:05:54;4.80;;;3.17;;
60169;SDS011;46042;49.444;6.862;2023-08-21T10:08:24;4.88;;;3.40;;
60169;SDS011;46042;49.444;6.862;2023-08-21T10:10:52;4.18;;;3.22;;
60169;SDS011;46042;49.444;6.862;2023-08-21T10:13:20;4.15;;;2.90;;
60169;SDS011;46042;49.444;6.862;2023-08-21T10:15:46;6.97;;;3.30;;
60169;SDS011;46042;49.444;6.862;2023-08-21T10:20:45;6.43;;;3.38;;
60169;SDS011;46042;49.444;6.862;2023-08-21T10:23:23;6.93;;;3.10;;
60169;SDS011;46042;49.444;6.862;2023-08-21T10:26:00;6.30;;;2.90;;
60169;SDS011;46042;49.444;6.862;2023-08-21T10:31:32;6.13;;;2.80;;
60169;SDS011;46042;49.444;6.862;2023-08-21T10:34:04;7.65;;;3.40;;
60169;SDS011;46042;49.444;6.862;2023-08-21T10:36:39;7.88;;;3.15;;
60169;SDS011;46042;49.444;6.862;2023-08-21T10:39:15;8.55;;;3.28;;
60169;SDS011;46042;49.444;6.862;2023-08-21T10:41:55;8.40;;;3.55;;
60169;SDS011;46042;49.444;6.862;2023-08-21T10:47:22;6.45;;;3.40;;
60169;SDS011;46042;49.444;6.862;2023-08-21T10:49:57;6.65;;;2.92;;
60169;SDS011;46042;49.444;6.862;2023-08-21T10:52:26;4.85;;;3.05;;
60169;SDS011;46042;49.444;6.862;2023-08-21T10:54:57;5.50;;;3.42;;
60169;SDS011;46042;49.444;6.862;2023-08-21T10:57:26;6.85;;;3.42;;
60169;SDS011;46042;49.444;6.862;2023-08-21T10:59:58;4.80;;;3.13;;
60169;SDS011;46042;49.444;6.862;2023-08-21T11:02:36;5.55;;;3.13;;
60169;SDS011;46042;49.444;6.862;2023-08-21T11:05:10;5.20;;;3.08;;
60169;SDS011;46042;49.444;6.862;2023-08-21T11:07:38;5.95;;;3.13;;
60169;SDS011;46042;49.444;6.862;2023-08-21T11:10:13;5.43;;;2.67;;
60169;SDS011;46042;49.444;6.862;2023-08-21T11:12:48;4.70;;;3.03;;
60169;SDS011;46042;49.444;6.862;2023-08-21T11:15:16;5.93;;;2.90;;
60169;SDS011;46042;49.444;6.862;2023-08-21T11:17:57;4.20;;;2.55;;
60169;SDS011;46042;49.444;6.862;2023-08-21T11:20:29;6.78;;;2.75;;
60169;SDS011;46042;49.444;6.862;2023-08-21T11:23:03;4.80;;;3.20;;
60169;SDS011;46042;49.444;6.862;2023-08-21T11:25:34;5.88;;;2.65;;
60169;SDS011;46042;49.444;6.862;2023-08-21T11:28:05;5.30;;;3.05;;
60169;SDS011;46042;49.444;6.862;2023-08-21T11:30:33;3.75;;;2.38;;
60169;SDS011;46042;49.444;6.862;2023-08-21T11:35:34;3.42;;;2.50;;
60169;SDS011;46042;49.444;6.862;2023-08-21T11:38:01;4.78;;;2.65;;
60169;SDS011;46042;49.444;6.862;2023-08-21T11:40:27;3.72;;;2.72;;
60169;SDS011;46042;49.444;6.862;2023-08-21T11:43:02;7.95;;;3.03;;
60169;SDS011;46042;49.444;6.862;2023-08-21T11:45:29;6.20;;;3.15;;
60169;SDS011;46042;49.444;6.862;2023-08-21T11:48:10;4.88;;;2.80;;
60169;SDS011;46042;49.444;6.862;2023-08-21T11:50:37;4.15;;;2.40;;
60169;SDS011;46042;49.444;6.862;2023-08-21T11:53:07;3.33;;;2.50;;
60169;SDS011;46042;49.444;6.862;2023-08-21T11:55:34;5.47;;;3.30;;
60169;SDS011;46042;49.444;6.862;2023-08-21T11:58:01;3.90;;;2.90;;
60169;SDS011;46042;49.444;6.862;2023-08-21T12:00:28;5.55;;;2.60;;
60169;SDS011;46042;49.444;6.862;2023-08-21T12:02:57;2.83;;;2.47;;
60169;SDS011;46042;49.444;6.862;2023-08-21T12:07:54;7.22;;;2.50;;
60169;SDS011;46042;49.444;6.862;2023-08-21T12:10:25;5.90;;;2.88;;
60169;SDS011;46042;49.444;6.862;2023-08-21T12:12:52;4.47;;;2.67;;
60169;SDS011;46042;49.444;6.862;2023-08-21T12:15:19;9.73;;;2.70;;
60169;SDS011;46042;49.444;6.862;2023-08-21T12:17:46;4.05;;;2.58;;
60169;SDS011;46042;49.444;6.862;2023-08-21T12:20:13;3.53;;;2.38;;
60169;SDS011;46042;49.444;6.862;2023-08-21T12:22:40;5.05;;;2.90;;
60169;SDS011;46042;49.444;6.862;2023-08-21T12:25:10;4.00;;;3.00;;
60169;SDS011;46042;49.444;6.862;2023-08-21T12:27:37;4.22;;;2.83;;
60169;SDS011;46042;49.444;6.862;2023-08-21T12:30:06;2.95;;;2.63;;
60169;SDS011;46042;49.444;6.862;2023-08-21T12:32:34;4.85;;;2.58;;
60169;SDS011;46042;49.444;6.862;2023-08-21T12:35:00;5.47;;;3.22;;
60169;SDS011;46042;49.444;6.862;2023-08-21T12:37:27;6.75;;;3.13;;
60169;SDS011;46042;49.444;6.862;2023-08-21T12:39:55;3.40;;;2.58;;
60169;SDS011;46042;49.444;6.862;2023-08-21T12:42:22;6.07;;;2.47;;
60169;SDS011;46042;49.444;6.862;2023-08-21T12:44:49;5.45;;;2.63;;
60169;SDS011;46042;49.444;6.862;2023-08-21T12:47:16;4.78;;;3.00;;
60169;SDS011;46042;49.444;6.862;2023-08-21T12:49:43;7.78;;;2.85;;
60169;SDS011;46042;49.444;6.862;2023-08-21T12:52:10;7.15;;;3.22;;
60169;SDS011;46042;49.444;6.862;2023-08-21T12:54:38;5.03;;;2.70;;
60169;SDS011;46042;49.444;6.862;2023-08-21T12:57:06;5.65;;;2.67;;
60169;SDS011;46042;49.444;6.862;2023-08-21T12:59:33;7.00;;;2.63;;
60169;SDS011;46042;49.444;6.862;2023-08-21T13:02:00;5.28;;;2.67;;
60169;SDS011;46042;49.444;6.862;2023-08-21T13:04:27;4.22;;;2.40;;
60169;SDS011;46042;49.444;6.862;2023-08-21T13:06:56;4.70;;;2.33;;
60169;SDS011;46042;49.444;6.862;2023-08-21T13:09:24;4.45;;;2.78;;
60169;SDS011;46042;49.444;6.862;2023-08-21T13:11:51;3.50;;;2.60;;
60169;SDS011;46042;49.444;6.862;2023-08-21T13:14:18;3.75;;;2.92;;
60169;SDS011;46042;49.444;6.862;2023-08-21T13:16:45;4.25;;;3.03;;
60169;SDS011;46042;49.444;6.862;2023-08-21T13:19:12;6.13;;;2.70;;
60169;SDS011;46042;49.444;6.862;2023-08-21T13:21:38;6.05;;;2.60;;
60169;SDS011;46042;49.444;6.862;2023-08-21T13:24:06;2.90;;;2.50;;
60169;SDS011;46042;49.444;6.862;2023-08-21T13:26:33;2.53;;;2.30;;
60169;SDS011;46042;49.444;6.862;2023-08-21T13:28:59;4.88;;;2.70;;
60169;SDS011;46042;49.444;6.862;2023-08-21T13:31:27;3.95;;;2.40;;
60169;SDS011;46042;49.444;6.862;2023-08-21T13:33:55;8.98;;;2.53;;
60169;SDS011;46042;49.444;6.862;2023-08-21T13:36:22;3.40;;;2.60;;
60169;SDS011;46042;49.444;6.862;2023-08-21T13:38:51;4.28;;;2.63;;
60169;SDS011;46042;49.444;6.862;2023-08-21T13:41:18;2.70;;;2.33;;
60169;SDS011;46042;49.444;6.862;2023-08-21T13:43:44;4.13;;;2.80;;
60169;SDS011;46042;49.444;6.862;2023-08-21T13:46:12;4.25;;;2.40;;
60169;SDS011;46042;49.444;6.862;2023-08-21T13:48:39;6.72;;;2.90;;
60169;SDS011;46042;49.444;6.862;2023-08-21T13:51:05;3.55;;;2.58;;
60169;SDS011;46042;49.444;6.862;2023-08-21T13:53:32;7.35;;;2.50;;
60169;SDS011;46042;49.444;6.862;2023-08-21T13:55:59;7.13;;;3.17;;
60169;SDS011;46042;49.444;6.862;2023-08-21T13:58:25;6.03;;;3.42;;
60169;SDS011;46042;49.444;6.862;2023-08-21T14:00:52;3.67;;;2.45;;
60169;SDS011;46042;49.444;6.862;2023-08-21T14:03:19;5.15;;;2.90;;
60169;SDS011;46042;49.444;6.862;2023-08-21T14:05:45;4.85;;;2.88;;
60169;SDS011;46042;49.444;6.862;2023-08-21T14:08:12;5.30;;;2.53;;
60169;SDS011;46042;49.444;6.862;2023-08-21T14:10:39;4.78;;;2.95;;
60169;SDS011;46042;49.444;6.862;2023-08-21T14:13:07;4.38;;;2.83;;
60169;SDS011;46042;49.444;6.862;2023-08-21T14:15:34;6.07;;;3.00;;
60169;SDS011;46042;49.444;6.862;2023-08-21T14:18:01;4.20;;;2.78;;
60169;SDS011;46042;49.444;6.862;2023-08-21T14:20:29;5.72;;;3.10;;
60169;SDS011;46042;49.444;6.862;2023-08-21T14:22:55;4.53;;;2.70;;
60169;SDS011;46042;49.444;6.862;2023-08-21T14:25:22;5.20;;;2.70;;
60169;SDS011;46042;49.444;6.862;2023-08-21T14:27:49;4.18;;;2.67;;
60169;SDS011;46042;49.444;6.862;2023-08-21T14:30:15;3.72;;;2.72;;
60169;SDS011;46042;49.444;6.862;2023-08-21T14:32:42;8.65;;;2.80;;
60169;SDS011;46042;49.444;6.862;2023-08-21T14:35:10;4.88;;;2.72;;
60169;SDS011;46042;49.444;6.862;2023-08-21T14:37:37;5.05;;;2.58;;
60169;SDS011;46042;49.444;6.862;2023-08-21T14:40:05;4.43;;;2.55;;
60169;SDS011;46042;49.444;6.862;2023-08-21T14:42:36;4.68;;;2.90;;
60169;SDS011;46042;49.444;6.862;2023-08-21T14:45:04;4.32;;;2.88;;
60169;SDS011;46042;49.444;6.862;2023-08-21T14:47:32;5.90;;;3.10;;
60169;SDS011;46042;49.444;6.862;2023-08-21T14:49:58;4.10;;;2.90;;
60169;SDS011;46042;49.444;6.862;2023-08-21T14:52:25;3.97;;;2.70;;
60169;SDS011;46042;49.444;6.862;2023-08-21T14:54:52;4.95;;;2.65;;
60169;SDS011;46042;49.444;6.862;2023-08-21T14:57:19;6.40;;;3.15;;
60169;SDS011;46042;49.444;6.862;2023-08-21T14:59:46;3.80;;;2.60;;
60169;SDS011;46042;49.444;6.862;2023-08-21T15:02:13;3.38;;;2.80;;